createdAt,value
2018-02-15T00:00:05.145Z,79.40
2018-02-15T00:02:31.957Z,79.80
2018-02-15T00:04:58.803Z,79.90
2018-02-15T00:07:25.754Z,79.90
2018-02-15T00:09:52.663Z,80.00
2018-02-15T00:12:19.468Z,80.10
2018-02-15T00:14:46.321Z,80.00
2018-02-15T00:17:13.978Z,80.00
2018-02-15T00:19:40.963Z,80.00
2018-02-15T00:22:08.718Z,79.20
2018-02-15T00:24:35.662Z,79.50
2018-02-15T00:27:02.546Z,79.90
2018-02-15T00:29:29.354Z,79.50
2018-02-15T00:31:56.238Z,79.50
2018-02-15T00:34:23.297Z,79.90
2018-02-15T00:36:51.070Z,80.20
2018-02-15T00:39:17.942Z,80.30
2018-02-15T00:41:44.918Z,80.10
2018-02-15T00:44:12.017Z,79.90
2018-02-15T00:46:39.074Z,79.60
2018-02-15T00:49:06.059Z,79.50
2018-02-15T00:51:33.001Z,79.50
2018-02-15T00:53:59.851Z,79.50
2018-02-15T00:56:26.642Z,79.70
2018-02-15T00:58:53.482Z,80.00
2018-02-15T01:01:20.442Z,80.10
2018-02-15T01:03:47.430Z,79.30
2018-02-15T01:06:14.469Z,79.20
2018-02-15T01:08:41.602Z,79.60
2018-02-15T01:11:08.398Z,80.30
2018-02-15T01:13:35.405Z,80.00
2018-02-15T01:16:03.025Z,80.40
2018-02-15T01:18:29.975Z,80.40
2018-02-15T01:20:57.838Z,80.90
2018-02-15T01:23:24.742Z,80.80
2018-02-15T01:25:52.317Z,80.10
2018-02-15T01:28:19.149Z,80.10
2018-02-15T01:30:46.729Z,81.20
2018-02-15T01:33:13.559Z,81.10
2018-02-15T01:35:40.390Z,80.90
2018-02-15T01:38:07.970Z,80.40
2018-02-15T01:40:34.986Z,80.40
2018-02-15T01:43:01.862Z,79.80
2018-02-15T01:45:28.881Z,80.10
2018-02-15T01:47:55.737Z,79.70
2018-02-15T01:50:23.411Z,79.20
2018-02-15T01:52:50.237Z,79.20
2018-02-15T01:55:17.261Z,78.90
2018-02-15T01:57:44.857Z,78.20
2018-02-15T02:00:11.706Z,78.20
2018-02-15T02:02:39.449Z,79.10
2018-02-15T02:05:07.027Z,79.60
2018-02-15T02:07:34.021Z,79.50
2018-02-15T02:10:01.050Z,79.70
2018-02-15T02:12:27.881Z,79.70
2018-02-15T02:14:54.825Z,79.70
2018-02-15T02:17:21.761Z,79.90
2018-02-15T02:19:48.717Z,79.60
2018-02-15T02:22:15.562Z,79.50
2018-02-15T02:24:42.565Z,79.60
2018-02-15T02:27:09.457Z,79.60
2018-02-15T02:29:36.339Z,79.80
2018-02-15T02:32:03.242Z,79.50
2018-02-15T02:34:30.250Z,79.60
2018-02-15T02:36:57.104Z,79.50
2018-02-15T02:39:23.934Z,79.20
2018-02-15T02:41:50.974Z,79.40
2018-02-15T02:44:17.966Z,79.00
2018-02-15T02:46:44.800Z,79.90
2018-02-15T02:49:11.850Z,80.00
2018-02-15T02:51:39.663Z,79.90
2018-02-15T02:54:07.337Z,79.70
2018-02-15T02:56:34.298Z,79.70
2018-02-15T02:59:01.169Z,79.90
2018-02-15T03:01:28.211Z,79.80
2018-02-15T03:03:55.222Z,80.00
2018-02-15T03:06:22.083Z,80.00
2018-02-15T03:08:49.030Z,80.00
2018-02-15T03:11:15.894Z,79.90
2018-02-15T03:13:42.734Z,79.60
2018-02-15T03:16:09.621Z,80.20
2018-02-15T03:18:36.681Z,80.20
2018-02-15T03:21:04.273Z,80.30
2018-02-15T03:23:31.107Z,80.30
2018-02-15T03:25:58.030Z,80.70
2018-02-15T03:28:25.867Z,80.60
2018-02-15T03:30:52.942Z,80.60
2018-02-15T03:33:19.887Z,80.30
2018-02-15T03:35:47.474Z,80.40
2018-02-15T03:38:14.326Z,80.40
2018-02-15T03:40:41.279Z,80.00
2018-02-15T03:43:08.141Z,79.90
2018-02-15T03:45:34.994Z,79.90
2018-02-15T03:48:01.838Z,79.70
2018-02-15T03:50:28.661Z,79.70
2018-02-15T03:52:55.494Z,79.60
2018-02-15T03:55:22.341Z,79.10
2018-02-15T03:57:49.181Z,79.50
2018-02-15T04:00:16.023Z,80.60
2018-02-15T04:02:42.841Z,80.60
2018-02-15T04:05:10.587Z,81.00
2018-02-15T04:07:37.606Z,80.90
2018-02-15T04:10:05.198Z,81.20
2018-02-15T04:12:32.789Z,81.30
2018-02-15T04:14:59.770Z,81.20
2018-02-15T04:17:26.770Z,80.60
2018-02-15T04:19:53.766Z,80.40
2018-02-15T04:22:20.740Z,80.30
2018-02-15T04:24:48.312Z,80.70
2018-02-15T04:27:15.303Z,80.80
2018-02-15T04:29:42.978Z,80.50
2018-02-15T04:32:09.990Z,80.50
2018-02-15T04:34:36.885Z,80.30
2018-02-15T04:37:03.741Z,79.50
2018-02-15T04:39:30.593Z,80.30
2018-02-15T04:41:58.175Z,80.50
2018-02-15T04:44:25.031Z,80.40
2018-02-15T04:46:52.115Z,80.60
2018-02-15T04:49:18.940Z,80.30
2018-02-15T04:51:45.786Z,80.40
2018-02-15T04:54:12.694Z,80.00
2018-02-15T04:56:39.512Z,80.30
2018-02-15T04:59:07.094Z,80.00
2018-02-15T05:01:34.054Z,80.00
2018-02-15T05:04:00.894Z,79.60
2018-02-15T05:06:27.934Z,80.10
2018-02-15T05:08:54.831Z,79.80
2018-02-15T05:11:21.617Z,79.80
2018-02-15T05:13:48.473Z,80.10
2018-02-15T05:16:15.471Z,80.70
2018-02-15T05:18:42.449Z,79.90
2018-02-15T05:21:09.360Z,80.40
2018-02-15T05:23:36.240Z,80.90
2018-02-15T05:26:03.290Z,80.60
2018-02-15T05:28:30.239Z,80.70
2018-02-15T05:30:57.105Z,80.80
2018-02-15T05:33:23.974Z,81.20
2018-02-15T05:35:51.658Z,81.50
2018-02-15T05:38:18.546Z,80.70
2018-02-15T05:40:45.416Z,80.60
2018-02-15T05:43:12.414Z,79.60
2018-02-15T05:45:39.393Z,79.20
2018-02-15T05:48:06.373Z,80.90
2018-02-15T05:50:33.930Z,81.10
2018-02-15T05:53:00.766Z,81.00
2018-02-15T05:55:28.370Z,80.80
2018-02-15T05:57:55.177Z,80.70
2018-02-15T06:00:22.053Z,80.90
2018-02-15T06:02:49.104Z,81.50
2018-02-15T06:05:16.854Z,82.20
2018-02-15T06:07:44.135Z,82.20
2018-02-15T06:10:11.057Z,81.00
2018-02-15T06:12:37.877Z,81.00
2018-02-15T06:15:05.622Z,80.10
2018-02-15T06:17:32.441Z,80.00
2018-02-15T06:19:59.286Z,79.40
2018-02-15T06:22:26.138Z,79.40
2018-02-15T06:24:53.085Z,79.20
2018-02-15T06:27:19.910Z,79.20
2018-02-15T06:29:46.749Z,79.70
2018-02-15T06:32:13.590Z,79.30
2018-02-15T06:34:40.398Z,79.70
2018-02-15T06:37:07.991Z,80.10
2018-02-15T06:39:34.838Z,80.10
2018-02-15T06:42:01.672Z,80.20
2018-02-15T06:44:28.501Z,79.30
2018-02-15T06:46:55.374Z,80.00
2018-02-15T06:49:22.232Z,79.10
2018-02-15T06:51:49.066Z,79.50
2018-02-15T06:54:15.898Z,79.60
2018-02-15T06:56:42.734Z,79.70
2018-02-15T06:59:09.558Z,80.40
2018-02-15T07:01:36.539Z,80.20
2018-02-15T07:04:03.616Z,80.50
2018-02-15T07:06:30.538Z,80.80
2018-02-15T07:08:57.461Z,80.10
2018-02-15T07:11:24.349Z,80.10
2018-02-15T07:13:51.433Z,80.30
2018-02-15T07:16:18.308Z,79.80
2018-02-15T07:18:45.293Z,78.30
2018-02-15T07:21:12.963Z,77.60
2018-02-15T07:23:39.873Z,77.60
2018-02-15T07:26:06.804Z,77.90
2018-02-15T07:28:33.758Z,77.90
2018-02-15T07:31:00.704Z,78.10
2018-02-15T07:33:27.560Z,77.60
2018-02-15T07:35:54.469Z,77.80
2018-02-15T07:38:22.185Z,78.40
2018-02-15T07:40:49.749Z,77.90
2018-02-15T07:43:16.819Z,77.80
2018-02-15T07:45:43.770Z,77.60
2018-02-15T07:48:10.712Z,78.00
2018-02-15T07:50:37.642Z,77.20
2018-02-15T07:53:04.586Z,77.00
2018-02-15T07:55:31.682Z,76.40
2018-02-15T07:57:59.430Z,76.50
2018-02-15T08:00:26.418Z,76.40
2018-02-15T08:02:54.196Z,76.90
2018-02-15T08:05:21.113Z,76.90
2018-02-15T08:07:48.743Z,77.80
2018-02-15T08:10:15.620Z,77.80
2018-02-15T08:12:42.468Z,77.50
2018-02-15T08:15:09.380Z,77.30
2018-02-15T08:17:36.363Z,76.50
2018-02-15T08:20:03.370Z,75.70
2018-02-15T08:22:30.235Z,75.20
2018-02-15T08:24:57.267Z,76.80
2018-02-15T08:27:24.198Z,75.80
2018-02-15T08:29:51.058Z,75.40
2018-02-15T08:32:17.974Z,75.10
2018-02-15T08:34:44.825Z,75.00
2018-02-15T08:37:12.639Z,74.70
2018-02-15T08:39:39.650Z,75.60
2018-02-15T08:42:06.511Z,75.30
2018-02-15T08:44:34.190Z,75.00
2018-02-15T08:47:01.298Z,75.00
2018-02-15T08:49:28.142Z,74.80
2018-02-15T08:51:55.066Z,74.40
2018-02-15T08:54:22.066Z,75.10
2018-02-15T08:56:49.702Z,73.60
2018-02-15T08:59:16.617Z,73.50
2018-02-15T09:01:43.538Z,73.70
2018-02-15T09:04:11.145Z,72.80
2018-02-15T09:06:38.008Z,72.80
2018-02-15T09:09:04.872Z,73.10
2018-02-15T09:11:31.714Z,72.60
2018-02-15T09:13:58.654Z,71.40
2018-02-15T09:16:25.551Z,71.50
2018-02-15T09:18:52.398Z,72.10
2018-02-15T09:21:19.362Z,72.60
2018-02-15T09:23:46.377Z,72.20
2018-02-15T09:26:13.250Z,72.60
2018-02-15T09:28:40.180Z,71.50
2018-02-15T09:31:07.129Z,70.40
2018-02-15T09:33:34.936Z,71.00
2018-02-15T09:36:01.889Z,71.00
2018-02-15T09:38:28.802Z,70.30
2018-02-15T09:40:55.746Z,69.30
2018-02-15T09:43:22.773Z,67.30
2018-02-15T09:45:50.408Z,66.80
2018-02-15T09:48:17.256Z,66.10
2018-02-15T09:50:44.247Z,64.70
2018-02-15T09:53:11.373Z,64.00
2018-02-15T09:55:38.330Z,63.40
2018-02-15T09:58:05.324Z,64.10
2018-02-15T10:00:32.226Z,65.50
2018-02-15T10:02:59.210Z,65.40
2018-02-15T10:05:26.114Z,63.90
2018-02-15T10:07:53.106Z,62.20
2018-02-15T10:10:20.075Z,61.60
2018-02-15T10:12:46.998Z,63.50
2018-02-15T10:15:13.998Z,61.80
2018-02-15T10:17:41.715Z,58.20
2018-02-15T10:20:08.746Z,58.30
2018-02-15T10:22:36.011Z,59.40
2018-02-15T10:25:03.103Z,58.90
2018-02-15T10:27:30.190Z,57.70
2018-02-15T10:29:57.210Z,57.30
2018-02-15T10:32:24.324Z,55.90
2018-02-15T10:34:51.298Z,55.10
2018-02-15T10:37:19.054Z,53.60
2018-02-15T10:39:46.080Z,53.60
2018-02-15T10:42:13.130Z,52.20
2018-02-15T10:44:40.142Z,51.30
2018-02-15T10:47:07.116Z,50.10
2018-02-15T10:49:34.134Z,48.80
2018-02-15T10:52:01.097Z,49.00
2018-02-15T10:54:28.082Z,47.90
2018-02-15T10:56:55.865Z,42.50
2018-02-15T10:59:22.798Z,41.90
2018-02-15T11:04:52.967Z,40.80
2018-02-15T11:07:20.030Z,38.20
2018-02-15T11:09:46.963Z,39.60
2018-02-15T11:12:14.651Z,40.80
2018-02-15T11:14:41.670Z,40.80
2018-02-15T11:17:09.269Z,37.70
2018-02-15T11:19:36.256Z,37.70
2018-02-15T11:22:04.238Z,37.30
2018-02-15T11:24:31.200Z,37.20
2018-02-15T11:26:58.943Z,35.20
2018-02-15T11:29:25.984Z,35.20
2018-02-15T11:31:53.033Z,32.70
2018-02-15T11:34:19.982Z,32.20
2018-02-15T11:36:47.829Z,29.60
2018-02-15T11:39:14.635Z,29.60
2018-02-15T11:41:41.574Z,29.70
2018-02-15T11:44:09.316Z,27.40
2018-02-15T11:46:36.234Z,27.30
2018-02-15T11:49:03.330Z,28.60
2018-02-15T11:51:30.473Z,27.40
2018-02-15T11:53:57.444Z,27.40
2018-02-15T11:56:25.260Z,26.30
2018-02-15T11:58:52.145Z,26.30
2018-02-15T12:01:19.154Z,25.80
2018-02-15T12:03:46.284Z,26.60
2018-02-15T12:06:13.939Z,27.30
2018-02-15T12:08:40.883Z,27.30
2018-02-15T12:11:07.838Z,26.70
2018-02-15T12:13:34.750Z,26.30
2018-02-15T12:16:01.597Z,25.20
2018-02-15T12:18:28.437Z,25.40
2018-02-15T12:20:56.106Z,26.60
2018-02-15T12:23:22.927Z,26.50
2018-02-15T12:25:50.477Z,24.00
2018-02-15T12:28:18.054Z,25.40
2018-02-15T12:30:44.861Z,25.40
2018-02-15T12:33:12.490Z,24.40
2018-02-15T12:35:39.323Z,24.30
2018-02-15T12:38:06.154Z,23.50
2018-02-15T12:40:32.984Z,24.40
2018-02-15T12:42:59.814Z,23.10
2018-02-15T12:45:26.671Z,23.10
2018-02-15T12:47:53.529Z,24.80
2018-02-15T12:50:21.128Z,24.70
2018-02-15T12:52:48.033Z,24.70
2018-02-15T12:55:14.861Z,24.00
2018-02-15T12:57:41.695Z,23.10
2018-02-15T13:00:08.678Z,23.80
2018-02-15T13:02:35.498Z,23.80
2018-02-15T13:05:02.374Z,23.10
2018-02-15T13:07:29.222Z,23.90
2018-02-15T13:09:56.074Z,23.70
2018-02-15T13:12:35.104Z,23.00
2018-02-15T13:15:01.998Z,22.80
2018-02-15T13:17:28.842Z,22.10
2018-02-15T13:20:07.977Z,21.90
2018-02-15T13:22:47.037Z,22.50
2018-02-15T13:25:13.923Z,22.90
2018-02-15T13:27:53.707Z,23.10
2018-02-15T13:30:20.576Z,23.10
2018-02-15T13:32:47.390Z,24.50
2018-02-15T13:35:14.238Z,23.80
2018-02-15T13:37:41.098Z,23.10
2018-02-15T13:40:07.933Z,22.60
2018-02-15T13:42:34.785Z,22.60
2018-02-15T13:45:01.641Z,22.30
2018-02-15T13:47:28.470Z,23.20
2018-02-15T13:49:55.330Z,23.30
2018-02-15T13:52:22.154Z,24.90
2018-02-15T13:54:48.981Z,24.80
2018-02-15T13:57:15.893Z,26.30
2018-02-15T13:59:42.728Z,28.80
2018-02-15T14:02:10.287Z,31.30
2018-02-15T14:04:37.161Z,31.30
2018-02-15T14:07:04.190Z,32.40
2018-02-15T14:09:31.110Z,33.40
2018-02-15T14:11:58.683Z,36.60
2018-02-15T14:14:25.546Z,36.50
2018-02-15T14:16:52.369Z,37.70
2018-02-15T14:19:19.211Z,38.30
2018-02-15T14:21:46.111Z,38.90
2018-02-15T14:24:12.953Z,38.90
2018-02-15T14:26:39.797Z,39.30
2018-02-15T14:29:06.754Z,39.50
2018-02-15T14:31:33.573Z,40.40
2018-02-15T14:34:00.418Z,40.90
2018-02-15T14:36:27.302Z,42.30
2018-02-15T14:38:54.342Z,43.10
2018-02-15T14:41:21.357Z,43.00
2018-02-15T14:43:48.379Z,42.90
2018-02-15T14:46:15.357Z,42.50
2018-02-15T14:48:42.389Z,43.00
2018-02-15T14:51:09.319Z,44.50
2018-02-15T14:53:37.026Z,44.10
2018-02-15T14:56:04.007Z,44.10
2018-02-15T14:58:30.885Z,45.20
2018-02-15T15:00:57.770Z,44.70
2018-02-15T15:03:25.003Z,45.00
2018-02-15T15:05:52.726Z,47.60
2018-02-15T15:08:19.569Z,47.50
2018-02-15T15:10:46.405Z,47.10
2018-02-15T15:13:13.266Z,47.50
2018-02-15T15:15:40.099Z,47.20
2018-02-15T15:18:07.681Z,48.30
2018-02-15T15:20:34.538Z,48.20
2018-02-15T15:23:01.378Z,48.60
2018-02-15T15:25:28.205Z,48.50
2018-02-15T15:27:55.362Z,49.20
2018-02-15T15:30:22.195Z,49.50
2018-02-15T15:32:49.038Z,50.50
2018-02-15T15:35:15.916Z,49.90
2018-02-15T15:37:42.728Z,50.60
2018-02-15T15:40:09.582Z,50.30
2018-02-15T15:42:36.410Z,51.10
2018-02-15T15:45:03.430Z,52.00
2018-02-15T15:47:30.490Z,51.80
2018-02-15T15:49:59.286Z,51.30
2018-02-15T15:52:26.291Z,51.20
2018-02-15T15:54:54.149Z,52.50
2018-02-15T15:57:21.072Z,52.80
2018-02-15T15:59:55.242Z,53.00
2018-02-15T16:02:22.115Z,52.90
2018-02-15T16:04:48.941Z,52.70
2018-02-15T16:07:15.821Z,53.10
2018-02-15T16:09:42.638Z,53.80
2018-02-15T16:12:09.613Z,53.90
2018-02-15T16:14:37.382Z,55.50
2018-02-15T16:17:05.075Z,55.40
2018-02-15T16:19:35.375Z,55.30
2018-02-15T16:22:03.350Z,56.00
2018-02-15T16:24:30.311Z,56.40
2018-02-15T16:26:57.271Z,57.40
2018-02-15T16:29:24.322Z,57.20
2018-02-15T16:31:51.801Z,57.60
2018-02-15T16:34:18.772Z,57.70
2018-02-15T16:36:45.675Z,58.20
2018-02-15T16:39:13.510Z,58.50
2018-02-15T16:41:40.675Z,58.90
2018-02-15T16:44:07.834Z,59.40
2018-02-15T16:46:34.733Z,59.80
2018-02-15T16:49:01.744Z,59.90
2018-02-15T16:51:28.791Z,60.10
2018-02-15T16:53:55.837Z,60.60
2018-02-15T16:56:22.784Z,60.90
2018-02-15T16:58:49.763Z,61.60
2018-02-15T17:01:16.742Z,61.30
2018-02-15T17:03:44.506Z,61.70
2018-02-15T17:06:18.598Z,62.30
2018-02-15T17:08:48.134Z,63.30
2018-02-15T17:11:15.092Z,63.20
2018-02-15T17:13:44.026Z,63.80
2018-02-15T17:16:10.966Z,64.20
2018-02-15T17:18:39.479Z,64.10
2018-02-15T17:21:07.346Z,64.00
2018-02-15T17:23:35.447Z,64.40
2018-02-15T17:26:03.079Z,64.80
2018-02-15T17:28:30.571Z,65.00
2018-02-15T17:30:59.032Z,64.90
2018-02-15T17:33:26.335Z,65.30
2018-02-15T17:35:53.303Z,65.50
2018-02-15T17:38:21.370Z,65.60
2018-02-15T17:40:48.273Z,65.60
2018-02-15T17:43:15.110Z,65.80
2018-02-15T17:45:42.157Z,65.70
2018-02-15T17:48:19.788Z,66.10
2018-02-15T17:50:46.794Z,66.10
2018-02-15T17:53:13.729Z,66.10
2018-02-15T17:55:40.723Z,66.00
2018-02-15T17:58:07.669Z,66.30
2018-02-15T18:00:35.270Z,67.00
2018-02-15T18:03:02.261Z,67.30
2018-02-15T18:05:30.315Z,67.60
2018-02-15T18:07:57.318Z,68.90
2018-02-15T18:10:26.426Z,67.90
2018-02-15T18:12:54.314Z,68.10
2018-02-15T18:15:22.154Z,68.10
2018-02-15T18:17:49.110Z,67.80
2018-02-15T18:20:16.026Z,67.50
2018-02-15T18:22:43.034Z,67.20
2018-02-15T18:25:10.816Z,67.80
2018-02-15T18:27:38.627Z,67.60
2018-02-15T18:30:06.506Z,67.00
2018-02-15T18:32:33.431Z,67.30
2018-02-15T18:35:00.352Z,67.10
2018-02-15T18:37:27.243Z,67.60
2018-02-15T18:39:55.874Z,68.60
2018-02-15T18:42:23.502Z,68.50
2018-02-15T18:44:50.549Z,68.50
2018-02-15T18:47:18.320Z,70.10
2018-02-15T18:49:46.050Z,69.60
2018-02-15T18:52:13.792Z,69.90
2018-02-15T18:54:40.814Z,69.90
2018-02-15T18:57:07.777Z,70.20
2018-02-15T18:59:34.722Z,70.40
2018-02-15T19:02:01.762Z,70.60
2018-02-15T19:04:28.697Z,70.80
2018-02-15T19:06:56.345Z,70.70
2018-02-15T19:09:23.304Z,70.90
2018-02-15T19:11:50.295Z,70.90
2018-02-15T19:14:17.426Z,70.60
2018-02-15T19:16:44.571Z,71.00
2018-02-15T19:19:12.374Z,70.40
2018-02-15T19:21:39.335Z,70.20
2018-02-15T19:24:06.243Z,70.90
2018-02-15T19:26:33.219Z,70.70
2018-02-15T19:29:00.990Z,70.60
2018-02-15T19:31:29.250Z,70.80
2018-02-15T19:33:56.251Z,70.50
2018-02-15T19:36:23.140Z,70.20
2018-02-15T19:38:50.193Z,70.00
2018-02-15T19:41:18.162Z,70.30
2018-02-15T19:43:46.083Z,71.00
2018-02-15T19:46:13.059Z,70.50
2018-02-15T19:48:40.004Z,70.90
2018-02-15T19:51:06.888Z,70.80
2018-02-15T19:53:33.771Z,70.40
2018-02-15T19:56:00.654Z,70.70
2018-02-15T19:58:27.685Z,70.60
2018-02-15T20:00:54.730Z,71.80
2018-02-15T20:03:21.981Z,70.90
2018-02-15T20:05:49.040Z,70.60
2018-02-15T20:08:16.651Z,71.20
2018-02-15T20:10:44.394Z,71.70
2018-02-15T20:13:11.566Z,71.70
2018-02-15T20:15:44.675Z,71.30
2018-02-15T20:18:11.645Z,71.00
2018-02-15T20:20:38.494Z,71.10
2018-02-15T20:23:05.563Z,71.00
2018-02-15T20:25:32.694Z,71.20
2018-02-15T20:28:05.763Z,70.60
2018-02-15T20:30:32.703Z,70.20
2018-02-15T20:32:59.723Z,70.90
2018-02-15T20:35:26.698Z,71.10
2018-02-15T20:38:00.408Z,71.20
2018-02-15T20:40:33.838Z,71.10
2018-02-15T20:43:01.449Z,71.50
2018-02-15T20:45:28.653Z,71.50
2018-02-15T20:47:56.243Z,71.90
2018-02-15T20:50:29.375Z,72.10
2018-02-15T20:53:02.481Z,71.50
2018-02-15T20:55:35.353Z,71.30
2018-02-15T20:58:03.077Z,70.70
2018-02-15T21:00:30.125Z,70.70
2018-02-15T21:02:58.263Z,70.60
2018-02-15T21:05:25.935Z,70.10
2018-02-15T21:07:52.753Z,70.10
2018-02-15T21:10:20.642Z,69.80
2018-02-15T21:12:47.770Z,70.00
2018-02-15T21:15:14.757Z,68.90
2018-02-15T21:17:42.622Z,68.10
2018-02-15T21:20:10.382Z,68.10
2018-02-15T21:22:37.375Z,68.10
2018-02-15T21:25:04.381Z,69.90
2018-02-15T21:27:31.322Z,70.40
2018-02-15T21:29:58.350Z,69.10
2018-02-15T21:32:25.390Z,69.20
2018-02-15T21:34:52.435Z,69.60
2018-02-15T21:37:20.786Z,69.60
2018-02-15T21:39:47.890Z,69.50
2018-02-15T21:42:15.814Z,68.70
2018-02-15T21:44:43.596Z,69.80
2018-02-15T21:47:10.563Z,69.60
2018-02-15T21:49:37.541Z,70.10
2018-02-15T21:52:04.557Z,70.30
2018-02-15T21:54:32.197Z,70.40
2018-02-15T21:56:59.281Z,70.40
2018-02-15T21:59:27.146Z,70.30
2018-02-15T22:01:54.058Z,71.20
2018-02-15T22:04:21.718Z,70.70
2018-02-15T22:06:48.878Z,70.70
2018-02-15T22:09:15.778Z,71.20
2018-02-15T22:11:42.781Z,71.30
2018-02-15T22:14:09.838Z,71.00
2018-02-15T22:16:36.875Z,70.90
2018-02-15T22:19:03.807Z,70.70
2018-02-15T22:21:31.425Z,71.70
2018-02-15T22:23:58.514Z,71.60
2018-02-15T22:26:25.473Z,71.80
2018-02-15T22:28:52.357Z,72.00
2018-02-15T22:31:19.413Z,72.20
2018-02-15T22:33:47.471Z,71.50
2018-02-15T22:36:15.302Z,70.50
2018-02-15T22:38:42.211Z,70.40
2018-02-15T22:41:09.178Z,70.90
2018-02-15T22:43:37.213Z,69.00
2018-02-15T22:46:04.190Z,68.90
2018-02-15T22:48:31.937Z,70.50
2018-02-15T22:50:59.687Z,71.40
2018-02-15T22:53:26.722Z,71.30
2018-02-15T22:55:53.601Z,71.70
2018-02-15T22:58:20.445Z,71.70
2018-02-15T23:00:47.539Z,71.80
2018-02-15T23:03:14.390Z,72.00
2018-02-15T23:05:41.411Z,72.00
2018-02-15T23:08:08.463Z,72.10
2018-02-15T23:10:35.468Z,71.80
2018-02-15T23:13:02.291Z,71.70
2018-02-15T23:15:29.289Z,72.10
2018-02-15T23:17:56.302Z,72.10
2018-02-15T23:20:23.293Z,71.80
2018-02-15T23:22:50.273Z,72.00
2018-02-15T23:25:17.257Z,72.50
2018-02-15T23:27:44.950Z,72.50
2018-02-15T23:30:11.829Z,72.40
2018-02-15T23:32:38.931Z,72.40
2018-02-15T23:35:06.905Z,72.60
2018-02-15T23:37:33.704Z,73.30
2018-02-15T23:40:00.723Z,74.10
2018-02-15T23:42:27.791Z,74.20
2018-02-15T23:44:54.832Z,74.10
2018-02-15T23:47:21.823Z,74.30
2018-02-15T23:49:48.845Z,74.40
2018-02-15T23:52:15.714Z,74.50
2018-02-15T23:54:42.806Z,74.40
2018-02-15T23:57:10.462Z,74.50
2018-02-15T23:59:37.446Z,74.40
